Terminal Aerodrome Forecast
Issued by NWS

Home | Current Version | Previous Version | Text Only | Print | Product List | Glossary On
Versions: 1 2 3 4 5 6 7 8 9 10 11 12 13 14 15 16 17 18 19 20 21
371
FTUS41 KPHI 121740
TAFMIV
TAF
KMIV 121740Z 1218/1318 27006KT P6SM SCT150
     FM122000 VRB03KT P6SM OVC100
     FM130500 24005KT 5SM -SHSN BKN030
     FM131000 29013G28KT P6SM BKN050
     FM131300 32015G30KT P6SM SCT050
     FM131700 31020G35KT P6SM BKN050=

USA.gov is the U.S. government's official web portal to all federal, state and local government web resources and services.